createdAt,value
2023-02-11T00:05:05.265Z,14.40
2023-02-11T00:10:09.577Z,15.07
2023-02-11T00:15:13.342Z,16.10
2023-02-11T00:20:18.327Z,15.20
2023-02-11T00:25:22.015Z,15.90
2023-02-11T00:30:25.729Z,15.37
2023-02-11T00:35:31.810Z,16.17
2023-02-11T00:40:35.163Z,14.83
2023-02-11T00:45:40.228Z,16.43
2023-02-11T00:50:45.342Z,15.63
2023-02-11T00:55:48.918Z,14.43
2023-02-11T01:00:53.780Z,15.67
2023-02-11T01:05:58.561Z,14.60
2023-02-11T01:11:05.893Z,15.27
2023-02-11T01:16:12.203Z,15.33
2023-02-11T01:21:17.052Z,14.27
2023-02-11T01:26:20.514Z,14.00
2023-02-11T01:31:24.940Z,14.43
2023-02-11T01:36:30.544Z,14.40
2023-02-11T01:41:37.791Z,14.53
2023-02-11T01:46:41.175Z,14.73
2023-02-11T01:51:51.017Z,15.50
2023-02-11T01:57:11.243Z,14.40
2023-02-11T02:02:19.252Z,14.33
2023-02-11T02:07:34.169Z,14.67
2023-02-11T02:12:37.570Z,14.00
2023-02-11T02:17:55.610Z,16.20
2023-02-11T02:23:27.592Z,14.90
2023-02-11T02:28:46.945Z,14.73
2023-02-11T02:33:56.765Z,14.20
2023-02-11T02:39:09.813Z,14.43
2023-02-11T02:44:13.362Z,14.40
2023-02-11T02:49:18.825Z,14.10
2023-02-11T02:54:46.154Z,14.40
2023-02-11T03:00:04.401Z,13.83
2023-02-11T03:05:17.648Z,14.20
2023-02-11T03:10:26.378Z,13.10
2023-02-11T03:15:34.176Z,13.70
2023-02-11T03:20:43.121Z,13.97
2023-02-11T03:25:51.919Z,13.40
2023-02-11T03:31:01.998Z,13.33
2023-02-11T03:36:12.180Z,13.27
2023-02-11T03:41:17.584Z,14.00
2023-02-11T03:46:24.623Z,13.30
2023-02-11T03:51:32.763Z,12.87
2023-02-11T03:56:43.445Z,13.67
2023-02-11T04:01:46.874Z,11.47
2023-02-11T04:07:16.567Z,12.67
2023-02-11T04:12:20.191Z,12.53
2023-02-11T04:17:23.551Z,12.73
2023-02-11T04:22:28.405Z,12.97
2023-02-11T04:27:32.596Z,12.47
2023-02-11T04:32:36.223Z,12.43
2023-02-11T04:37:41.031Z,12.73
2023-02-11T04:42:44.418Z,13.50
2023-02-11T04:47:49.085Z,12.40
2023-02-11T04:52:54.307Z,12.10
2023-02-11T04:58:00.779Z,11.57
2023-02-11T05:03:04.165Z,14.23
2023-02-11T05:08:11.100Z,13.50
2023-02-11T05:13:14.812Z,11.47
2023-02-11T05:18:18.459Z,11.40
2023-02-11T05:23:25.963Z,12.23
2023-02-11T05:28:30.166Z,11.83
2023-02-11T05:33:33.653Z,12.00
2023-02-11T05:38:39.389Z,11.57
2023-02-11T05:43:42.796Z,12.10
2023-02-11T05:48:48.354Z,12.17
2023-02-11T05:53:54.452Z,11.43
2023-02-11T05:59:00.664Z,14.40
2023-02-11T06:04:04.442Z,12.67
2023-02-11T06:09:10.432Z,11.50
2023-02-11T06:14:14.465Z,11.53
2023-02-11T06:19:18.091Z,10.93
2023-02-11T06:24:47.856Z,10.60
2023-02-11T06:29:46.761Z,12.00
2023-02-11T06:34:53.112Z,11.33
2023-02-11T06:39:57.927Z,12.97
2023-02-11T06:45:01.663Z,10.70
2023-02-11T06:50:09.047Z,11.03
2023-02-11T06:55:15.315Z,10.77
2023-02-11T07:00:19.570Z,11.43
2023-02-11T07:05:22.922Z,11.23
2023-02-11T07:10:27.664Z,10.83
2023-02-11T07:15:31.519Z,10.37
2023-02-11T07:20:35.140Z,11.27
2023-02-11T07:25:40.297Z,11.17
2023-02-11T07:30:43.827Z,10.80
2023-02-11T07:35:47.466Z,12.33
2023-02-11T07:40:52.225Z,12.67
2023-02-11T07:45:57.334Z,12.83
2023-02-11T07:51:07.558Z,11.70
2023-02-11T07:56:14.078Z,13.37
2023-02-11T08:01:22.595Z,13.37
2023-02-11T08:06:27.705Z,14.37
2023-02-11T08:11:33.017Z,13.33
2023-02-11T08:16:39.007Z,14.27
2023-02-11T08:21:43.373Z,13.47
2023-02-11T08:26:50.754Z,12.47
2023-02-11T08:31:54.147Z,12.93
2023-02-11T08:36:57.565Z,13.07
2023-02-11T08:42:02.478Z,14.40
2023-02-11T08:47:08.436Z,14.93
2023-02-11T08:52:11.793Z,14.27
2023-02-11T08:57:16.654Z,15.40
2023-02-11T09:02:20.425Z,13.57
2023-02-11T09:07:24.235Z,14.57
2023-02-11T09:12:29.069Z,15.67
2023-02-11T09:17:32.541Z,16.40
2023-02-11T09:22:36.389Z,15.63
2023-02-11T09:27:41.196Z,16.07
2023-02-11T09:32:45.816Z,15.30
2023-02-11T09:37:49.176Z,14.97
2023-02-11T09:43:03.083Z,16.27
2023-02-11T09:48:14.877Z,15.93
2023-02-11T09:53:27.104Z,15.57
2023-02-11T09:58:35.796Z,17.83
2023-02-11T10:04:05.562Z,15.40
2023-02-11T10:09:24.660Z,16.47
2023-02-11T10:14:51.989Z,15.13
2023-02-11T10:20:10.415Z,16.07
2023-02-11T10:25:24.953Z,14.13
2023-02-11T10:30:35.492Z,15.30
2023-02-11T10:35:40.381Z,14.97
2023-02-11T10:40:44.161Z,14.53
2023-02-11T10:45:53.506Z,16.70
2023-02-11T10:51:09.444Z,15.47
2023-02-11T10:56:15.750Z,14.47
2023-02-11T11:01:24.775Z,15.23
2023-02-11T11:06:33.598Z,14.37
2023-02-11T11:11:53.390Z,13.97
2023-02-11T11:16:58.432Z,14.30
2023-02-11T11:22:02.319Z,14.83
2023-02-11T11:27:07.457Z,13.93
2023-02-11T11:32:21.664Z,14.70
2023-02-11T11:37:28.087Z,13.87
2023-02-11T11:42:33.362Z,13.87
2023-02-11T11:47:46.403Z,13.27
2023-02-11T11:52:57.977Z,15.63
2023-02-11T11:58:01.540Z,13.07
2023-02-11T12:03:37.950Z,14.43
2023-02-11T12:08:54.336Z,13.53
2023-02-11T12:14:11.683Z,13.03
2023-02-11T12:19:39.783Z,13.87
2023-02-11T12:24:57.942Z,12.77
2023-02-11T12:30:10.510Z,13.87
2023-02-11T12:35:39.313Z,12.27
2023-02-11T12:40:48.899Z,13.30
2023-02-11T12:46:07.101Z,13.37
2023-02-11T12:51:23.589Z,13.03
2023-02-11T12:56:38.078Z,13.43
2023-02-11T13:01:45.186Z,13.03
2023-02-11T13:06:53.444Z,12.33
2023-02-11T13:12:24.412Z,12.90
2023-02-11T13:17:34.332Z,11.20
2023-02-11T13:22:43.896Z,13.10
2023-02-11T13:27:58.987Z,11.80
2023-02-11T13:33:06.702Z,13.23
2023-02-11T13:38:25.386Z,11.20
2023-02-11T13:43:32.044Z,11.17
2023-02-11T13:48:38.354Z,10.17
2023-02-11T13:53:49.274Z,9.47
2023-02-11T13:58:54.197Z,9.43
2023-02-11T14:04:38.145Z,9.93
2023-02-11T14:09:42.007Z,9.83
2023-02-11T14:15:19.036Z,9.70
2023-02-11T14:20:45.402Z,9.63
2023-02-11T14:25:59.833Z,9.70
2023-02-11T14:31:11.283Z,9.60
2023-02-11T14:36:32.664Z,10.03
2023-02-11T14:41:41.501Z,11.47
2023-02-11T14:46:52.542Z,11.67
2023-02-11T14:51:59.559Z,11.57
2023-02-11T14:57:13.936Z,11.40
2023-02-11T15:02:26.397Z,10.97
2023-02-11T15:07:30.485Z,11.40
2023-02-11T15:12:33.970Z,10.17
2023-02-11T15:17:43.322Z,10.53
2023-02-11T15:22:47.531Z,10.37
2023-02-11T15:27:53.153Z,11.47
2023-02-11T15:33:00.328Z,10.57
2023-02-11T15:38:05.996Z,11.53
2023-02-11T15:43:11.722Z,10.93
2023-02-11T15:48:20.373Z,11.10
2023-02-11T15:53:27.212Z,11.17
2023-02-11T15:58:37.970Z,11.23
2023-02-11T16:03:44.384Z,11.13
2023-02-11T16:09:02.585Z,11.83
2023-02-11T16:14:24.624Z,11.50
2023-02-11T16:19:31.809Z,10.80
2023-02-11T16:24:36.896Z,11.77
2023-02-11T16:29:40.666Z,13.50
2023-02-11T16:34:45.619Z,13.67
2023-02-11T16:39:49.322Z,12.03
2023-02-11T16:44:52.795Z,13.40
2023-02-11T16:49:58.269Z,13.07
2023-02-11T16:55:02.172Z,13.03
2023-02-11T17:00:07.801Z,12.80
2023-02-11T17:05:20.046Z,14.07
2023-02-11T17:10:27.109Z,12.53
2023-02-11T17:15:30.471Z,12.40
2023-02-11T17:20:35.313Z,11.60
2023-02-11T17:25:39.130Z,12.00
2023-02-11T17:30:44.194Z,11.37
2023-02-11T17:35:49.213Z,11.77
2023-02-11T17:40:59.945Z,12.63
2023-02-11T17:46:07.782Z,12.00
2023-02-11T17:51:24.206Z,13.20
2023-02-11T17:56:28.128Z,13.53
2023-02-11T18:01:33.526Z,12.30
2023-02-11T18:06:38.572Z,14.03
2023-02-11T18:11:42.551Z,14.00
2023-02-11T18:16:47.592Z,14.90
2023-02-11T18:21:53.064Z,14.77
2023-02-11T18:26:56.534Z,14.37
2023-02-11T18:32:02.583Z,13.87
2023-02-11T18:37:07.475Z,13.10
2023-02-11T18:42:16.871Z,13.70
2023-02-11T18:47:23.030Z,13.70
2023-02-11T18:52:31.442Z,14.43
2023-02-11T18:57:35.242Z,14.60
2023-02-11T19:02:39.045Z,14.30
2023-02-11T19:07:43.960Z,12.70
2023-02-11T19:12:47.399Z,13.60
2023-02-11T19:17:50.953Z,11.43
2023-02-11T19:22:55.755Z,10.93
2023-02-11T19:27:59.184Z,10.83
2023-02-11T19:33:02.597Z,10.43
2023-02-11T19:38:08.622Z,10.43
2023-02-11T19:43:12.555Z,11.13
2023-02-11T19:48:15.999Z,10.30
2023-02-11T19:53:21.191Z,11.03
2023-02-11T19:58:24.710Z,10.90
2023-02-11T20:03:28.469Z,10.47
2023-02-11T20:08:33.668Z,10.90
2023-02-11T20:13:37.866Z,9.83
2023-02-11T20:18:41.972Z,10.50
2023-02-11T20:23:47.441Z,10.00
2023-02-11T20:28:52.443Z,10.27
2023-02-11T20:33:56.522Z,10.20
2023-02-11T20:39:01.968Z,10.60
2023-02-11T20:44:08.357Z,10.67
2023-02-11T20:49:13.013Z,9.90
2023-02-11T20:54:19.881Z,10.57
2023-02-11T20:59:23.420Z,10.67
2023-02-11T21:04:29.601Z,11.10
2023-02-11T21:09:34.853Z,10.60
2023-02-11T21:14:38.273Z,10.27
2023-02-11T21:19:43.417Z,9.57
2023-02-11T21:24:48.204Z,10.47
2023-02-11T21:29:54.516Z,9.50
2023-02-11T21:35:00.614Z,10.33
2023-02-11T21:40:10.347Z,9.17
2023-02-11T21:45:14.186Z,9.27
2023-02-11T21:50:19.282Z,9.63
2023-02-11T21:55:24.432Z,10.17
2023-02-11T22:00:28.236Z,9.17
2023-02-11T22:05:31.942Z,9.23
2023-02-11T22:10:36.724Z,9.60
2023-02-11T22:15:40.192Z,10.03
2023-02-11T22:20:43.592Z,9.43
2023-02-11T22:25:48.401Z,9.17
2023-02-11T22:30:55.494Z,9.27
2023-02-11T22:36:03.128Z,8.93
2023-02-11T22:41:10.754Z,9.97
2023-02-11T22:46:16.554Z,8.97
2023-02-11T22:51:22.367Z,9.10
2023-02-11T22:56:28.704Z,9.43
2023-02-11T23:01:32.944Z,9.03
2023-02-11T23:06:36.644Z,8.73
2023-02-11T23:11:41.992Z,8.60
2023-02-11T23:16:45.446Z,10.03
2023-02-11T23:21:52.706Z,9.63
2023-02-11T23:26:57.472Z,10.23
2023-02-11T23:32:00.877Z,9.87
2023-02-11T23:37:04.291Z,9.67
2023-02-11T23:42:09.227Z,10.10
2023-02-11T23:47:12.927Z,9.73
2023-02-11T23:52:16.584Z,10.00
2023-02-11T23:57:22.017Z,10.83
